Time;durP1;ratioP1;P1;durP2;ratioP2;P2;SDS_P1;SDS_P2;PMS_P1;PMS_P2;Temp;Humidity;BMP_temperature;BMP_pressure;BME280_temperature;BME280_humidity;BME280_pressure;Samples;Min_cycle;Max_cycle;Signal;HPM_P1;HPM_P2
2022/10/05 00:01:00;;;;;;;7.10;4.88;;;16.10;99.90;;;;;;5054986;28;20351;-62
2022/10/05 00:03:37;;;;;;;9.90;5.40;;;16.10;99.90;;;;;;5053730;28;20037;-63
2022/10/05 00:06:04;;;;;;;6.18;4.60;;;16.00;99.90;;;;;;5054187;28;20053;-63
2022/10/05 00:08:33;;;;;;;6.85;4.50;;;16.10;99.90;;;;;;5053910;28;20116;-63
2022/10/05 00:10:59;;;;;;;7.10;4.47;;;16.00;99.90;;;;;;5054141;28;20083;-63
2022/10/05 00:13:29;;;;;;;6.18;4.65;;;16.10;99.90;;;;;;5054961;28;20037;-62
2022/10/05 00:16:16;;;;;;;9.30;5.15;;;16.00;99.90;;;;;;5053566;28;20048;-62
2022/10/05 00:18:51;;;;;;;6.30;4.57;;;16.00;99.90;;;;;;5053944;28;20298;-63
2022/10/05 00:21:26;;;;;;;7.75;4.80;;;16.00;99.90;;;;;;5053537;28;20116;-62
2022/10/05 00:23:55;;;;;;;6.45;5.22;;;16.00;99.90;;;;;;5053685;28;20102;-63
2022/10/05 00:26:23;;;;;;;7.97;5.68;;;16.00;99.90;;;;;;5053310;28;20045;-63
2022/10/05 00:28:49;;;;;;;8.95;5.95;;;16.00;99.90;;;;;;5054579;28;20037;-62
2022/10/05 00:31:22;;;;;;;9.13;6.03;;;16.00;99.90;;;;;;5054046;28;20110;-62
2022/10/05 00:33:48;;;;;;;11.05;6.70;;;16.00;99.90;;;;;;5053116;28;20110;-63
2022/10/05 00:36:14;;;;;;;8.50;6.47;;;16.00;99.90;;;;;;5053241;28;20044;-63
2022/10/05 00:38:41;;;;;;;9.45;5.90;;;16.00;99.90;;;;;;5033736;28;20444;-63
2022/10/05 00:41:27;;;;;;;9.73;6.32;;;16.00;99.90;;;;;;5049620;28;20071;-62
2022/10/05 00:44:20;;;;;;;9.57;6.50;;;16.00;99.90;;;;;;5054415;28;20421;-63
2022/10/05 00:46:49;;;;;;;9.63;6.40;;;16.00;99.90;;;;;;5053921;28;20461;-62
2022/10/05 00:49:22;;;;;;;9.68;6.60;;;16.00;99.90;;;;;;5052866;28;20045;-63
2022/10/05 00:52:08;;;;;;;11.73;6.45;;;16.00;99.90;;;;;;5054098;28;20057;-63
2022/10/05 00:54:58;;;;;;;10.30;6.15;;;16.00;99.90;;;;;;5053181;28;20351;-63
2022/10/05 00:57:39;;;;;;;8.68;6.18;;;16.00;99.90;;;;;;5036396;28;20173;-62
2022/10/05 01:00:22;;;;;;;10.80;6.65;;;15.90;99.90;;;;;;5053129;28;20369;-63
2022/10/05 01:02:50;;;;;;;7.93;6.47;;;16.00;99.90;;;;;;5054131;28;20029;-64
2022/10/05 01:05:44;;;;;;;9.55;6.55;;;15.90;99.90;;;;;;5053743;28;20422;-63
2022/10/05 01:08:40;;;;;;;9.68;6.70;;;15.90;99.90;;;;;;5052761;28;20037;-63
2022/10/05 01:11:11;;;;;;;9.90;7.13;;;15.90;99.90;;;;;;5052607;28;20323;-63
2022/10/05 01:13:55;;;;;;;10.45;6.78;;;15.90;99.90;;;;;;5053755;28;20466;-63
2022/10/05 01:16:34;;;;;;;9.18;6.72;;;15.90;99.90;;;;;;5052710;28;20076;-63
2022/10/05 01:19:22;;;;;;;9.65;6.60;;;15.90;99.90;;;;;;5052653;28;20476;-63
2022/10/05 01:22:08;;;;;;;8.07;6.80;;;15.80;99.90;;;;;;5052481;28;20389;-63
2022/10/05 01:25:10;;;;;;;9.73;6.65;;;15.80;99.90;;;;;;5035998;28;20041;-63
2022/10/05 01:27:58;;;;;;;11.38;6.93;;;15.90;99.90;;;;;;5038767;28;20052;-62
2022/10/05 01:30:23;;;;;;;10.93;7.15;;;15.80;99.90;;;;;;5053681;28;20041;-63
2022/10/05 01:33:00;;;;;;;8.93;6.82;;;15.80;99.90;;;;;;5052189;28;20045;-62
2022/10/05 01:35:48;;;;;;;14.00;6.72;;;15.80;99.90;;;;;;5053843;28;20099;-63
2022/10/05 01:38:29;;;;;;;11.88;6.97;;;15.80;99.90;;;;;;5035412;28;20033;-63
2022/10/05 01:41:18;;;;;;;9.73;6.95;;;15.80;99.90;;;;;;5053393;28;20527;-63
2022/10/05 01:43:52;;;;;;;9.07;6.47;;;15.80;99.90;;;;;;5052651;28;20501;-63
2022/10/05 01:46:34;;;;;;;8.55;6.68;;;15.70;99.90;;;;;;5052187;28;20072;-62
2022/10/05 01:49:19;;;;;;;11.77;6.70;;;15.80;99.90;;;;;;5053674;28;20147;-63
2022/10/05 01:52:11;;;;;;;10.57;6.78;;;15.80;99.90;;;;;;5053429;28;20098;-63
2022/10/05 01:54:55;;;;;;;11.93;6.85;;;15.80;99.90;;;;;;5053334;28;20052;-62
2022/10/05 01:57:45;;;;;;;9.30;6.40;;;15.70;99.90;;;;;;5051910;28;20040;-62
2022/10/05 02:00:16;;;;;;;9.65;6.30;;;15.70;99.90;;;;;;5036668;28;20053;-62
2022/10/05 02:02:58;;;;;;;8.57;5.75;;;15.70;99.90;;;;;;5055814;28;20128;-62
2022/10/05 02:05:31;;;;;;;8.50;5.50;;;15.70;99.90;;;;;;5055602;28;20132;-63
2022/10/05 02:08:07;;;;;;;7.87;5.90;;;15.70;99.90;;;;;;5056867;28;20037;-62
2022/10/05 02:11:06;;;;;;;9.43;6.10;;;15.70;99.90;;;;;;5055836;28;20078;-62
2022/10/05 02:13:54;;;;;;;9.25;5.60;;;15.80;99.90;;;;;;5052220;28;20052;-62
2022/10/05 02:16:28;;;;;;;9.18;5.82;;;15.70;99.90;;;;;;5056567;28;20029;-62
2022/10/05 02:19:04;;;;;;;8.10;5.80;;;15.70;99.90;;;;;;5055717;28;20032;-63
2022/10/05 02:21:33;;;;;;;7.72;5.85;;;15.70;99.90;;;;;;5056845;28;20075;-62
2022/10/05 02:24:05;;;;;;;7.82;5.70;;;15.70;99.90;;;;;;5055367;28;20116;-63
2022/10/05 02:26:34;;;;;;;7.47;5.80;;;15.70;99.90;;;;;;5055934;28;20119;-62
2022/10/05 02:29:03;;;;;;;7.95;5.63;;;15.70;99.90;;;;;;5055147;28;20037;-63
2022/10/05 02:31:43;;;;;;;8.65;5.90;;;15.60;99.90;;;;;;5042709;28;20103;-62
2022/10/05 02:34:19;;;;;;;8.98;5.40;;;15.70;99.90;;;;;;5055486;28;20507;-63
2022/10/05 02:36:48;;;;;;;9.25;5.53;;;15.60;99.90;;;;;;5056302;28;20045;-64
2022/10/05 02:39:23;;;;;;;7.32;5.32;;;15.70;99.90;;;;;;5055075;28;20049;-63
2022/10/05 02:42:06;;;;;;;6.90;5.38;;;15.70;99.90;;;;;;5043677;28;20041;-63
2022/10/05 02:44:44;;;;;;;6.97;5.28;;;15.70;99.90;;;;;;5055399;28;20090;-62
2022/10/05 02:47:29;;;;;;;8.40;5.15;;;15.70;99.90;;;;;;5056432;28;20033;-63
2022/10/05 02:50:05;;;;;;;9.52;5.50;;;15.70;99.90;;;;;;5055148;28;20044;-63
2022/10/05 02:53:02;;;;;;;6.47;5.10;;;15.70;99.90;;;;;;5055387;28;20377;-63
2022/10/05 02:55:46;;;;;;;8.30;5.82;;;15.70;99.90;;;;;;5056287;28;20102;-62
2022/10/05 02:58:18;;;;;;;6.80;5.18;;;15.70;99.90;;;;;;5055013;28;20048;-63
2022/10/05 03:01:10;;;;;;;7.68;5.53;;;15.70;99.90;;;;;;5038305;28;20109;-62
2022/10/05 03:03:46;;;;;;;9.43;5.40;;;15.70;99.90;;;;;;5054727;28;20045;-63
2022/10/05 03:06:24;;;;;;;7.32;5.57;;;15.60;99.90;;;;;;5055158;28;20033;-63
2022/10/05 03:09:08;;;;;;;7.85;5.53;;;15.60;99.90;;;;;;5054775;28;20127;-63
2022/10/05 03:11:47;;;;;;;7.88;4.93;;;15.60;99.90;;;;;;5038306;28;20052;-63
2022/10/05 03:14:31;;;;;;;7.30;5.70;;;15.50;99.90;;;;;;5055055;28;20571;-63
2022/10/05 03:17:00;;;;;;;8.23;5.72;;;15.50;99.90;;;;;;5054610;28;20068;-63
2022/10/05 03:19:47;;;;;;;9.25;5.80;;;15.60;99.90;;;;;;5054797;28;20053;-63
2022/10/05 03:22:31;;;;;;;9.02;6.45;;;15.50;99.90;;;;;;5055919;28;20120;-63
2022/10/05 03:25:28;;;;;;;9.88;5.90;;;15.50;99.90;;;;;;5054591;28;20079;-63
2022/10/05 03:28:00;;;;;;;8.00;6.15;;;15.50;99.90;;;;;;5054856;28;20094;-63
2022/10/05 03:30:33;;;;;;;7.75;5.88;;;15.50;99.90;;;;;;5055730;28;20045;-63
2022/10/05 03:33:14;;;;;;;7.97;6.40;;;15.50;99.90;;;;;;5055645;28;20037;-63
2022/10/05 03:35:54;;;;;;;9.57;6.72;;;15.50;99.90;;;;;;5055817;28;20107;-63
2022/10/05 03:38:30;;;;;;;9.23;6.97;;;15.50;99.90;;;;;;5042008;28;20405;-62
2022/10/05 03:41:22;;;;;;;8.77;6.68;;;15.50;99.90;;;;;;5054248;28;20099;-63
2022/10/05 03:44:17;;;;;;;10.38;7.03;;;15.50;99.90;;;;;;5054487;28;20045;-63
2022/10/05 03:46:58;;;;;;;9.75;6.82;;;15.50;99.90;;;;;;5055413;28;20040;-67
2022/10/05 03:49:31;;;;;;;11.02;7.22;;;15.40;99.90;;;;;;5055419;28;20109;-69
2022/10/05 03:52:17;;;;;;;8.88;7.35;;;15.40;99.90;;;;;;5054152;28;20109;-63
2022/10/05 03:54:51;;;;;;;9.48;7.22;;;15.40;99.90;;;;;;5054486;28;20237;-62
2022/10/05 03:57:20;;;;;;;10.32;7.38;;;15.40;99.90;;;;;;5055364;28;20048;-62
2022/10/05 04:00:13;;;;;;;10.85;7.38;;;15.40;99.90;;;;;;5055052;28;20032;-63
2022/10/05 04:02:44;;;;;;;9.95;7.35;;;15.40;99.90;;;;;;5055089;28;20350;-63
2022/10/05 04:05:11;;;;;;;10.63;7.72;;;15.40;99.90;;;;;;5054050;28;20441;-63
2022/10/05 04:07:56;;;;;;;9.90;7.20;;;15.40;99.90;;;;;;5053885;28;20041;-63
2022/10/05 04:10:32;;;;;;;9.07;6.88;;;15.40;99.90;;;;;;5053548;28;20037;-62
2022/10/05 04:13:15;;;;;;;11.73;7.10;;;15.40;99.90;;;;;;5036793;28;20045;-62
2022/10/05 04:16:12;;;;;;;10.73;7.45;;;15.40;99.90;;;;;;5054617;28;20458;-62
2022/10/05 04:18:48;;;;;;;10.05;7.50;;;15.40;99.90;;;;;;5053335;28;20037;-62
2022/10/05 04:21:21;;;;;;;13.10;7.40;;;15.50;99.90;;;;;;5054622;28;20048;-64
2022/10/05 04:24:11;;;;;;;9.45;7.65;;;15.40;99.90;;;;;;5053112;28;20051;-63
2022/10/05 04:26:36;;;;;;;9.45;6.85;;;15.40;99.90;;;;;;5053573;28;20450;-65
2022/10/05 04:29:31;;;;;;;11.60;7.57;;;15.40;99.90;;;;;;5036878;28;20052;-62
2022/10/05 04:32:12;;;;;;;9.98;7.50;;;15.40;99.90;;;;;;5036258;28;20052;-62
2022/10/05 04:34:39;;;;;;;8.68;6.82;;;15.40;99.90;;;;;;5054235;28;20033;-62
2022/10/05 04:37:17;;;;;;;9.80;7.40;;;15.30;99.90;;;;;;5054398;28;20053;-62
2022/10/05 04:40:11;;;;;;;11.20;7.55;;;15.30;99.90;;;;;;5036198;28;20083;-63
2022/10/05 04:43:08;;;;;;;9.07;7.20;;;15.30;99.90;;;;;;5045671;28;20059;-62
2022/10/05 04:46:10;;;;;;;11.48;7.20;;;15.30;99.90;;;;;;5054036;28;20381;-62
2022/10/05 04:49:14;;;;;;;9.02;6.80;;;15.30;99.90;;;;;;5052994;28;20048;-63
2022/10/05 04:52:12;;;;;;;8.23;6.75;;;15.30;99.90;;;;;;5054128;28;20040;-62
2022/10/05 04:55:02;;;;;;;10.15;7.30;;;15.30;99.90;;;;;;5053902;28;20051;-62
2022/10/05 04:57:36;;;;;;;11.02;6.88;;;15.30;99.90;;;;;;5053893;28;20033;-63
2022/10/05 05:00:04;;;;;;;;;;;15.30;99.90;;;;;;5054128;28;20044;-62
2022/10/05 05:02:51;;;;;;;11.63;6.90;;;15.30;99.90;;;;;;5054089;28;19932;-62
2022/10/05 05:05:52;;;;;;;9.75;7.00;;;15.30;99.90;;;;;;5052786;28;20044;-62
2022/10/05 05:08:26;;;;;;;10.75;7.28;;;15.30;99.90;;;;;;5052829;28;20377;-62
2022/10/05 05:11:25;;;;;;;9.95;6.85;;;15.30;99.90;;;;;;5053973;28;20102;-62
2022/10/05 05:14:03;;;;;;;8.77;6.78;;;15.30;99.90;;;;;;5040438;28;20354;-62
2022/10/05 05:16:37;;;;;;;9.43;6.68;;;15.30;99.90;;;;;;5053577;28;20037;-63
2022/10/05 05:19:27;;;;;;;11.52;6.85;;;15.30;99.90;;;;;;5038598;28;20044;-62
2022/10/05 05:22:19;;;;;;;9.23;6.32;;;15.30;99.90;;;;;;5040140;28;20044;-62
2022/10/05 05:25:17;;;;;;;10.15;6.93;;;15.30;99.90;;;;;;5052968;28;20465;-62
2022/10/05 05:28:11;;;;;;;9.90;6.28;;;15.30;99.90;;;;;;5032634;28;20041;-62
2022/10/05 05:30:42;;;;;;;9.13;6.65;;;15.30;99.90;;;;;;5053267;28;20064;-62
2022/10/05 05:33:17;;;;;;;8.73;6.63;;;15.30;99.90;;;;;;5052546;28;20366;-65
2022/10/05 05:36:01;;;;;;;10.75;6.82;;;15.30;99.90;;;;;;5054800;28;20158;-62
2022/10/05 05:38:32;;;;;;;10.80;6.40;;;15.30;99.90;;;;;;5057022;28;20052;-62
2022/10/05 05:40:58;;;;;;;10.93;7.10;;;15.30;99.90;;;;;;5056672;28;20045;-62
2022/10/05 05:43:32;;;;;;;9.27;7.28;;;15.30;99.90;;;;;;5056420;28;20354;-61
2022/10/05 05:46:01;;;;;;;11.15;7.35;;;15.30;99.90;;;;;;5056971;28;20036;-63
2022/10/05 05:48:38;;;;;;;9.60;6.85;;;15.30;99.90;;;;;;5056576;28;20041;-65
2022/10/05 05:51:24;;;;;;;9.07;7.10;;;15.30;99.90;;;;;;5056629;28;20056;-64
2022/10/05 05:54:28;;;;;;;9.95;6.90;;;15.30;99.90;;;;;;5056695;28;20053;-64
2022/10/05 05:57:14;;;;;;;9.77;6.70;;;15.30;99.90;;;;;;5036341;28;20072;-61
2022/10/05 05:59:53;;;;;;;9.35;7.05;;;15.30;99.90;;;;;;5041709;28;20410;-61
2022/10/05 06:02:24;;;;;;;8.73;7.10;;;15.30;99.90;;;;;;5039345;28;20067;-62
2022/10/05 06:05:01;;;;;;;9.00;6.93;;;15.30;99.90;;;;;;5056440;28;20466;-63
2022/10/05 06:07:30;;;;;;;7.72;6.68;;;15.30;99.90;;;;;;5056017;28;20090;-62
2022/10/05 06:09:57;;;;;;;10.32;6.72;;;15.30;99.90;;;;;;5056358;28;20357;-62
2022/10/05 06:12:40;;;;;;;8.05;6.50;;;15.30;99.90;;;;;;5056137;28;20417;-62
2022/10/05 06:15:37;;;;;;;7.45;6.15;;;15.30;99.90;;;;;;5056280;28;20071;-62
2022/10/05 06:18:09;;;;;;;9.35;6.97;;;15.30;99.90;;;;;;5056293;28;20040;-64
2022/10/05 06:21:00;;;;;;;8.73;6.72;;;15.30;99.90;;;;;;5037977;28;20045;-65
2022/10/05 06:23:57;;;;;;;11.38;7.43;;;15.40;99.90;;;;;;5053179;28;20045;-63
2022/10/05 06:26:50;;;;;;;8.63;6.80;;;15.40;99.90;;;;;;5047324;28;20077;-63
2022/10/05 06:29:19;;;;;;;8.60;6.55;;;15.40;99.90;;;;;;5037959;28;20038;-62
2022/10/05 06:32:18;;;;;;;9.63;7.18;;;15.40;99.90;;;;;;5056759;28;20115;-61
2022/10/05 06:35:00;;;;;;;7.57;6.40;;;15.40;99.90;;;;;;5056893;28;20121;-61
2022/10/05 06:38:02;;;;;;;9.27;6.80;;;15.40;99.90;;;;;;5055978;28;20067;-61
2022/10/05 06:40:40;;;;;;;10.52;6.53;;;15.40;99.90;;;;;;5037965;28;20085;-61
2022/10/05 06:43:50;;;;;;;7.85;6.22;;;15.40;99.90;;;;;;5055704;28;20121;-62
2022/10/05 06:46:34;;;;;;;9.60;6.13;;;15.40;99.90;;;;;;5025075;28;20081;-61
2022/10/05 06:49:14;;;;;;;7.57;5.97;;;15.40;99.90;;;;;;5056711;28;20036;-61
2022/10/05 06:52:04;;;;;;;6.70;5.68;;;15.40;99.90;;;;;;5056717;28;20037;-61
2022/10/05 06:54:45;;;;;;;9.38;5.45;;;15.40;99.90;;;;;;5055863;28;20061;-63
2022/10/05 06:57:37;;;;;;;5.43;4.80;;;15.40;99.90;;;;;;5056913;28;20056;-62
2022/10/05 07:00:19;;;;;;;7.03;5.00;;;15.40;99.90;;;;;;5055828;28;20170;-62
2022/10/05 07:03:17;;;;;;;6.13;4.57;;;15.40;99.90;;;;;;5055200;28;20045;-62
2022/10/05 07:05:51;;;;;;;6.57;4.68;;;15.50;99.90;;;;;;5055340;28;20135;-63
2022/10/05 07:08:28;;;;;;;6.72;4.32;;;15.50;99.90;;;;;;5055137;28;20052;-62
2022/10/05 07:11:08;;;;;;;6.28;4.10;;;15.50;99.90;;;;;;5055370;28;20099;-62
2022/10/05 07:14:03;;;;;;;7.70;4.20;;;15.60;99.90;;;;;;5038693;28;20076;-62
2022/10/05 07:16:55;;;;;;;6.15;4.18;;;15.60;99.90;;;;;;5055049;28;20400;-62
2022/10/05 07:19:26;;;;;;;5.85;3.92;;;15.60;99.90;;;;;;5055333;28;20070;-62
2022/10/05 07:22:03;;;;;;;6.85;3.97;;;15.60;99.90;;;;;;5054880;28;20128;-63
2022/10/05 07:24:40;;;;;;;6.45;4.00;;;15.60;99.90;;;;;;5055201;28;20049;-62
2022/10/05 07:27:17;;;;;;;5.97;4.13;;;15.70;99.90;;;;;;5055101;28;20054;-63
2022/10/05 07:30:03;;;;;;;8.20;4.35;;;15.70;99.90;;;;;;5054549;28;20040;-64
2022/10/05 07:33:08;;;;;;;7.15;4.05;;;15.70;99.90;;;;;;5039631;28;20431;-62
2022/10/05 07:38:53;;;;;;;7.75;4.60;;;15.70;99.90;;;;;;5054445;28;20094;-62
2022/10/05 07:41:50;;;;;;;16.63;5.07;;;15.80;99.90;;;;;;5054533;28;20465;-63
2022/10/05 07:44:25;;;;;;;8.05;5.10;;;15.70;99.90;;;;;;5054609;28;20095;-62
2022/10/05 07:46:54;;;;;;;8.00;4.82;;;15.70;99.90;;;;;;5038454;28;20033;-63
2022/10/05 07:49:44;;;;;;;6.57;5.05;;;15.80;99.90;;;;;;5038243;28;20041;-62
2022/10/05 07:52:26;;;;;;;7.25;4.78;;;15.80;99.90;;;;;;5055876;28;20053;-62
2022/10/05 07:55:08;;;;;;;8.23;5.22;;;15.90;99.90;;;;;;5054448;28;20049;-62
2022/10/05 07:57:45;;;;;;;7.53;5.63;;;15.80;99.90;;;;;;5053721;28;20067;-62
2022/10/05 08:00:22;;;;;;;5.70;4.70;;;15.80;99.90;;;;;;5054361;28;20061;-62
2022/10/05 08:03:09;;;;;;;6.95;5.00;;;15.80;99.90;;;;;;5054015;28;20105;-62
2022/10/05 08:05:41;;;;;;;7.72;4.85;;;15.90;99.90;;;;;;5055508;28;20111;-63
2022/10/05 08:08:10;;;;;;;5.95;4.55;;;15.90;99.90;;;;;;5054034;28;20440;-62
2022/10/05 08:11:04;;;;;;;7.55;5.43;;;15.90;99.90;;;;;;5053895;28;20066;-63
2022/10/05 08:13:38;;;;;;;6.78;4.88;;;15.90;99.90;;;;;;5054304;28;20055;-62
2022/10/05 08:16:13;;;;;;;7.15;5.18;;;16.00;99.90;;;;;;5054229;28;20094;-62
2022/10/05 08:18:55;;;;;;;8.27;5.55;;;16.00;99.90;;;;;;5054225;28;20438;-62
2022/10/05 08:21:35;;;;;;;7.32;5.25;;;16.00;99.90;;;;;;5037186;28;20131;-62
2022/10/05 08:24:21;;;;;;;6.63;4.70;;;16.10;99.90;;;;;;5053875;28;20479;-62
2022/10/05 08:27:24;;;;;;;7.28;4.80;;;16.20;99.90;;;;;;5054418;28;20037;-63
2022/10/05 08:30:00;;;;;;;6.28;4.35;;;16.20;99.90;;;;;;5037484;28;20045;-63
2022/10/05 08:32:53;;;;;;;5.72;3.90;;;16.30;99.90;;;;;;5053831;28;20484;-63
2022/10/05 08:35:37;;;;;;;5.53;3.92;;;16.30;99.90;;;;;;5048954;28;20059;-62
2022/10/05 08:38:10;;;;;;;8.67;4.17;;;16.40;99.90;;;;;;5036793;28;20045;-62
2022/10/05 08:41:16;;;;;;;8.43;4.33;;;16.40;99.90;;;;;;5020273;28;20041;-64
2022/10/05 08:44:23;;;;;;;6.97;3.95;;;16.50;99.90;;;;;;5053326;28;20066;-62
2022/10/05 08:47:04;;;;;;;7.60;4.00;;;16.50;99.90;;;;;;5037059;28;20083;-63
2022/10/05 08:50:00;;;;;;;5.20;3.42;;;16.50;99.90;;;;;;5037309;28;20114;-62
2022/10/05 08:52:59;;;;;;;4.70;3.20;;;16.50;99.90;;;;;;5053368;28;20090;-62
2022/10/05 08:55:45;;;;;;;5.50;3.15;;;16.60;99.90;;;;;;5053487;28;20045;-62
2022/10/05 08:58:31;;;;;;;6.72;3.20;;;16.60;99.90;;;;;;5053438;28;20397;-62
2022/10/05 09:01:02;;;;;;;5.18;3.45;;;16.60;99.90;;;;;;5053412;28;20041;-62
2022/10/05 09:03:58;;;;;;;5.38;3.50;;;16.60;99.90;;;;;;5054834;28;20032;-63
2022/10/05 09:06:52;;;;;;;4.93;3.45;;;16.60;99.90;;;;;;5054635;28;20055;-63
2022/10/05 09:09:30;;;;;;;3.97;2.97;;;16.70;99.90;;;;;;5053190;28;20045;-62
2022/10/05 09:12:10;;;;;;;5.60;3.00;;;16.70;99.90;;;;;;5054069;28;20140;-62
2022/10/05 09:14:54;;;;;;;4.43;3.15;;;16.70;99.90;;;;;;5053298;28;20144;-62
2022/10/05 09:17:24;;;;;;;;;;;16.80;99.90;;;;;;5053809;28;20056;-63
2022/10/05 09:20:07;;;;;;;4.65;3.55;;;16.80;99.90;;;;;;5053079;28;19956;-63
2022/10/05 09:23:13;;;;;;;8.63;3.73;;;16.80;99.90;;;;;;5054653;28;20077;-62
2022/10/05 09:26:06;;;;;;;5.88;3.10;;;16.90;99.90;;;;;;5053327;28;20322;-63
2022/10/05 09:29:15;;;;;;;4.65;3.40;;;17.00;99.90;;;;;;5053109;28;20504;-62
2022/10/05 09:31:59;;;;;;;4.28;3.08;;;17.00;99.90;;;;;;5036123;28;20477;-62
2022/10/05 09:34:50;;;;;;;6.70;3.60;;;17.00;99.90;;;;;;5053272;28;20383;-62
2022/10/05 09:37:16;;;;;;;6.60;3.58;;;17.00;99.90;;;;;;5052927;28;20067;-62
2022/10/05 09:40:40;;;;;;;7.10;3.45;;;17.00;99.90;;;;;;5053466;28;20534;-63
2022/10/05 09:43:40;;;;;;;6.82;3.67;;;17.10;99.90;;;;;;5052371;28;20385;-62
2022/10/05 09:46:50;;;;;;;4.80;3.55;;;17.00;99.90;;;;;;5036238;28;20070;-62
2022/10/05 09:49:30;;;;;;;5.90;3.85;;;17.00;99.90;;;;;;5036512;28;20378;-62
2022/10/05 09:52:02;;;;;;;6.07;3.70;;;17.00;99.90;;;;;;5034496;28;20053;-64
2022/10/05 09:55:07;;;;;;;6.80;3.50;;;17.00;99.90;;;;;;5052534;28;20040;-63
2022/10/05 09:58:11;;;;;;;6.68;3.60;;;17.00;99.90;;;;;;5041115;28;20111;-63
2022/10/05 10:01:05;;;;;;;4.13;3.53;;;17.00;99.90;;;;;;5053753;28;20111;-62
2022/10/05 10:03:52;;;;;;;5.35;3.70;;;17.00;99.90;;;;;;5052522;28;20328;-62
2022/10/05 10:06:33;;;;;;;5.47;3.90;;;16.90;99.90;;;;;;5052417;28;20131;-62
2022/10/05 10:09:20;;;;;;;5.57;3.95;;;17.00;99.90;;;;;;5052501;28;20037;-62
2022/10/05 10:12:13;;;;;;;4.90;3.97;;;17.00;99.90;;;;;;5053685;28;20454;-62
2022/10/05 10:14:51;;;;;;;5.47;3.95;;;17.00;99.90;;;;;;5052431;28;20041;-62
2022/10/05 10:17:46;;;;;;;6.72;4.00;;;16.90;99.90;;;;;;5052402;28;20045;-62
2022/10/05 10:20:18;;;;;;;5.18;3.83;;;17.00;99.90;;;;;;5053796;28;20041;-62
2022/10/05 10:23:14;;;;;;;6.00;3.83;;;17.10;99.90;;;;;;5055754;28;20044;-63
2022/10/05 10:25:56;;;;;;;9.50;3.60;;;17.10;99.90;;;;;;5055818;28;20045;-62
2022/10/05 10:28:51;;;;;;;6.13;3.38;;;17.20;99.90;;;;;;5056132;28;20476;-62
2022/10/05 10:31:25;;;;;;;;;;;17.20;99.90;;;;;;5019757;28;20057;-62
2022/10/05 10:34:16;;;;;;;5.35;3.40;;;17.20;99.90;;;;;;5054648;28;20253;-62
2022/10/05 10:37:02;;;;;;;5.28;3.42;;;17.30;99.90;;;;;;5055543;28;20056;-62
2022/10/05 10:39:47;;;;;;;4.57;3.17;;;17.40;99.90;;;;;;5055135;28;20057;-62
2022/10/05 10:42:23;;;;;;;4.35;2.58;;;17.40;99.90;;;;;;5056645;28;20041;-62
2022/10/05 10:45:11;;;;;;;4.10;2.92;;;17.50;99.90;;;;;;5056733;28;20045;-62
2022/10/05 10:47:45;;;;;;;4.82;2.65;;;17.50;99.90;;;;;;5056594;28;20053;-63
2022/10/05 10:50:17;;;;;;;4.53;3.03;;;17.60;99.90;;;;;;5055538;28;20037;-63
2022/10/05 10:53:10;;;;;;;5.18;3.40;;;17.70;99.90;;;;;;5056669;28;20362;-62
2022/10/05 10:55:48;;;;;;;4.65;3.72;;;17.80;99.90;;;;;;5056458;28;20079;-63
2022/10/05 10:58:50;;;;;;;6.75;3.90;;;17.80;99.90;;;;;;5055683;28;20044;-64
2022/10/05 11:01:42;;;;;;;5.30;4.05;;;17.80;99.90;;;;;;5052191;28;20485;-64
2022/10/05 11:04:39;;;;;;;3.92;3.53;;;17.80;99.90;;;;;;5035381;28;20033;-63
2022/10/05 11:07:04;;;;;;;7.68;3.90;;;17.90;99.90;;;;;;5035975;28;20466;-62
2022/10/05 11:09:57;;;;;;;4.78;3.20;;;17.90;99.90;;;;;;5055477;28;20164;-65
2022/10/05 11:12:47;;;;;;;4.95;3.05;;;18.00;99.90;;;;;;5055084;28;20044;-63
2022/10/05 11:15:30;;;;;;;5.95;2.90;;;18.00;99.90;;;;;;5055989;28;20045;-63
2022/10/05 11:18:09;;;;;;;3.92;2.80;;;17.90;99.90;;;;;;5056490;28;20036;-63
2022/10/05 11:21:02;;;;;;;4.35;2.67;;;18.00;99.90;;;;;;5055798;28;20343;-64
2022/10/05 11:24:05;;;;;;;6.18;2.80;;;18.00;99.90;;;;;;5056016;28;20041;-63
2022/10/05 11:27:03;;;;;;;4.38;2.72;;;17.90;99.90;;;;;;5054733;28;20374;-64
2022/10/05 11:30:13;;;;;;;4.45;2.97;;;17.90;99.90;;;;;;5034400;28;20471;-64
2022/10/05 11:33:00;;;;;;;6.28;3.10;;;17.90;99.90;;;;;;5036043;28;20429;-64
2022/10/05 11:35:54;;;;;;;5.70;3.42;;;17.90;99.90;;;;;;5035058;28;20045;-62
2022/10/05 11:38:31;;;;;;;4.15;3.13;;;17.80;99.90;;;;;;5046326;28;20056;-63
2022/10/05 11:41:16;;;;;;;5.28;3.25;;;17.80;99.90;;;;;;5055359;28;20048;-63
2022/10/05 11:44:05;;;;;;;4.47;3.10;;;17.80;99.90;;;;;;5054670;28;20037;-63
2022/10/05 11:46:53;;;;;;;6.50;3.00;;;17.70;99.90;;;;;;5038157;28;20044;-63
2022/10/05 11:49:18;;;;;;;5.03;3.00;;;17.70;99.90;;;;;;5055598;28;20461;-62
2022/10/05 11:52:05;;;;;;;6.75;2.90;;;17.70;99.90;;;;;;5054903;28;20475;-63
2022/10/05 11:54:42;;;;;;;7.25;3.00;;;17.70;99.90;;;;;;5054692;28;20045;-64
2022/10/05 11:57:12;;;;;;;4.40;3.00;;;17.70;99.90;;;;;;5055589;28;20041;-62
2022/10/05 11:59:50;;;;;;;5.88;2.95;;;17.70;99.90;;;;;;5054443;28;20055;-63
2022/10/05 12:02:31;;;;;;;5.65;3.40;;;17.70;99.90;;;;;;5055497;28;20345;-62
2022/10/05 12:05:14;;;;;;;7.28;3.40;;;17.70;99.90;;;;;;5054304;28;20446;-62
2022/10/05 12:07:55;;;;;;;5.78;3.00;;;17.60;99.90;;;;;;5055463;28;20056;-62
2022/10/05 12:10:43;;;;;;;6.22;3.38;;;17.70;99.90;;;;;;5054206;28;20037;-63
2022/10/05 12:13:24;;;;;;;8.38;3.72;;;17.60;99.90;;;;;;5054305;28;20055;-62
2022/10/05 12:15:54;;;;;;;6.28;3.08;;;17.60;99.90;;;;;;5054141;28;20037;-62
2022/10/05 12:18:29;;;;;;;8.68;3.42;;;17.60;99.90;;;;;;5055213;28;20136;-63
2022/10/05 12:21:23;;;;;;;6.75;3.47;;;17.60;99.90;;;;;;5053888;28;20143;-63
2022/10/05 12:24:02;;;;;;;5.78;3.33;;;17.70;99.90;;;;;;5055262;28;20075;-63
2022/10/05 12:26:36;;;;;;;5.63;3.60;;;17.60;99.90;;;;;;5054226;28;20044;-63
2022/10/05 12:29:33;;;;;;;7.47;3.80;;;17.70;99.90;;;;;;5054729;28;20127;-64
2022/10/05 12:32:12;;;;;;;6.13;3.55;;;17.70;99.90;;;;;;5053779;28;20151;-63
2022/10/05 12:34:44;;;;;;;7.43;3.83;;;17.70;99.90;;;;;;5053674;28;20371;-63
2022/10/05 12:37:37;;;;;;;6.60;3.92;;;17.70;99.90;;;;;;5053651;28;20159;-63
2022/10/05 12:40:18;;;;;;;5.78;3.55;;;17.70;99.90;;;;;;5053552;28;20061;-63
2022/10/05 12:42:59;;;;;;;5.93;3.70;;;17.80;99.90;;;;;;5053847;28;20059;-63
2022/10/05 12:45:28;;;;;;;6.80;3.97;;;17.80;99.90;;;;;;5053096;28;20053;-63
2022/10/05 12:48:21;;;;;;;6.45;3.65;;;17.80;99.90;;;;;;5054562;28;20033;-63
2022/10/05 12:51:02;;;;;;;6.90;3.72;;;17.90;99.90;;;;;;5053708;28;20107;-63
2022/10/05 12:53:54;;;;;;;6.57;3.58;;;17.90;99.90;;;;;;5036837;28;20532;-63
2022/10/05 12:56:28;;;;;;;8.05;3.70;;;17.90;99.90;;;;;;5053406;28;20368;-63
2022/10/05 12:59:14;;;;;;;6.25;3.10;;;17.90;99.90;;;;;;5054862;28;20102;-64
2022/10/05 13:01:59;;;;;;;7.93;3.60;;;18.00;99.90;;;;;;5053716;28;20094;-63
2022/10/05 13:04:45;;;;;;;5.63;3.20;;;18.00;99.90;;;;;;5053577;28;20380;-63
2022/10/05 13:07:40;;;;;;;5.78;3.42;;;17.90;99.90;;;;;;5053566;28;20045;-62
2022/10/05 13:10:17;;;;;;;7.50;3.35;;;18.00;99.90;;;;;;5053176;28;20086;-62
2022/10/05 13:12:46;;;;;;;4.63;3.20;;;18.00;99.90;;;;;;5053304;28;20075;-62
2022/10/05 13:15:54;;;;;;;6.05;3.58;;;18.00;99.90;;;;;;5053471;28;20476;-61
2022/10/05 13:18:53;;;;;;;4.82;3.00;;;18.00;99.90;;;;;;5053465;28;20106;-62
2022/10/05 13:21:48;;;;;;;5.90;3.03;;;18.10;99.90;;;;;;5036614;28;20041;-63
2022/10/05 13:24:17;;;;;;;6.57;3.35;;;18.20;99.90;;;;;;5050768;28;20041;-64
2022/10/05 13:26:54;;;;;;;7.40;3.38;;;18.20;99.90;;;;;;5050552;28;20422;-64
2022/10/05 13:29:32;;;;;;;5.57;3.17;;;18.20;99.90;;;;;;5054034;28;20045;-62
2022/10/05 13:32:33;;;;;;;6.97;3.20;;;18.30;99.90;;;;;;5053283;28;20480;-62
2022/10/05 13:35:19;;;;;;;9.70;3.40;;;18.30;99.90;;;;;;5052586;28;20546;-63
2022/10/05 13:38:09;;;;;;;4.65;3.17;;;18.30;99.90;;;;;;5054222;28;20060;-63
2022/10/05 13:41:02;;;;;;;4.85;2.90;;;18.30;99.90;;;;;;5054302;28;20195;-64
2022/10/05 13:43:48;;;;;;;9.50;3.05;;;18.40;99.90;;;;;;5053208;28;20430;-63
2022/10/05 13:46:50;;;;;;;5.13;2.67;;;18.40;99.90;;;;;;5053276;28;20049;-62
2022/10/05 13:49:28;;;;;;;5.28;2.80;;;18.40;99.90;;;;;;5053070;28;20056;-62
2022/10/05 13:52:16;;;;;;;6.30;2.90;;;18.50;99.90;;;;;;5054182;28;20036;-62
2022/10/05 13:54:57;;;;;;;6.82;2.80;;;18.50;99.90;;;;;;5053246;28;20056;-63
2022/10/05 13:57:43;;;;;;;5.10;2.92;;;18.40;99.90;;;;;;5055904;28;20043;-62
2022/10/05 14:00:24;;;;;;;5.93;2.83;;;18.40;99.90;;;;;;5057773;28;20036;-63
2022/10/05 14:02:52;;;;;;;4.97;3.00;;;18.40;99.90;;;;;;5040010;28;20037;-62
2022/10/05 14:05:29;;;;;;;7.75;3.20;;;18.40;99.90;;;;;;5057727;28;20171;-62
2022/10/05 14:08:01;;;;;;;5.32;2.85;;;18.40;99.90;;;;;;5057493;28;20040;-62
2022/10/05 14:10:34;;;;;;;6.07;2.47;;;18.40;99.90;;;;;;5056726;28;20041;-62